Terminal Aerodrome Forecast
Issued by NWS

Home | Current Version | Previous Version | Text Only | Print | Product List | Glossary On
Versions: 1 2 3 4 5 6 7 8 9 10 11 12 13 14 15 16 17 18
000
FTUS44 KLZK 301142
TAFPBF
TAF
KPBF 301142Z 3012/0112 20012G20KT P6SM VCSH SCT025 BKN060
      TEMPO 3012/3016 -SHRA BKN025
     FM301600 20012G20KT P6SM VCSH SCT035 BKN060
     FM010200 24006KT P6SM BKN060
     FM010600 27005KT P6SM SCT060 BKN250=

USA.gov is the U.S. government's official web portal to all federal, state and local government web resources and services.